createdAt,value
2019-03-24T00:00:29.652Z,59.63
2019-03-24T00:02:58.046Z,61.03
2019-03-24T00:05:26.464Z,63.33
2019-03-24T00:07:56.809Z,64.13
2019-03-24T00:10:25.004Z,69.90
2019-03-24T00:12:53.405Z,75.63
2019-03-24T00:15:26.240Z,64.47
2019-03-24T00:17:51.935Z,69.67
2019-03-24T00:20:20.333Z,65.27
2019-03-24T00:22:48.893Z,69.93
2019-03-24T00:25:17.298Z,73.00
2019-03-24T00:27:45.698Z,73.93
2019-03-24T00:30:14.454Z,66.92
2019-03-24T00:32:42.853Z,66.93
2019-03-24T00:35:11.341Z,51.23
2019-03-24T00:37:40.150Z,60.37
2019-03-24T00:40:09.485Z,75.10
2019-03-24T00:42:37.958Z,72.50
2019-03-24T00:45:08.402Z,67.73
2019-03-24T00:47:36.824Z,66.93
2019-03-24T00:50:08.459Z,66.43
2019-03-24T00:52:36.867Z,61.73
2019-03-24T00:55:07.223Z,51.77
2019-03-24T00:57:37.458Z,53.73
2019-03-24T01:00:10.698Z,59.10
2019-03-24T01:02:39.119Z,65.23
2019-03-24T01:05:08.060Z,65.90
2019-03-24T01:07:36.556Z,58.27
2019-03-24T01:10:07.064Z,58.23
2019-03-24T01:12:35.473Z,67.03
2019-03-24T01:15:04.705Z,63.53
2019-03-24T01:17:33.950Z,58.13
2019-03-24T01:20:02.349Z,60.77
2019-03-24T01:22:30.768Z,52.20
2019-03-24T01:24:59.171Z,54.53
2019-03-24T01:27:27.572Z,59.60
2019-03-24T01:29:57.354Z,56.97
2019-03-24T01:32:25.747Z,64.23
2019-03-24T01:34:54.150Z,48.73
2019-03-24T01:37:22.576Z,55.53
2019-03-24T01:39:50.974Z,48.77
2019-03-24T01:42:19.402Z,53.57
2019-03-24T01:44:48.475Z,53.17
2019-03-24T01:47:16.883Z,54.90
2019-03-24T01:49:45.302Z,56.37
2019-03-24T01:52:13.697Z,58.80
2019-03-24T01:54:42.121Z,57.40
2019-03-24T01:57:10.536Z,56.73
2019-03-24T01:59:38.924Z,67.67
2019-03-24T02:02:07.341Z,61.90
2019-03-24T02:04:35.832Z,65.60
2019-03-24T02:07:04.298Z,67.80
2019-03-24T02:09:32.720Z,65.33
2019-03-24T02:12:01.125Z,61.97
2019-03-24T02:14:29.957Z,62.83
2019-03-24T02:16:59.335Z,60.50
2019-03-24T02:19:27.825Z,61.10
2019-03-24T02:21:56.246Z,60.37
2019-03-24T02:24:25.361Z,60.88
2019-03-24T02:26:53.916Z,68.47
2019-03-24T02:29:22.313Z,54.93
2019-03-24T02:31:50.726Z,62.33
2019-03-24T02:34:19.159Z,56.27
2019-03-24T02:36:47.558Z,54.73
2019-03-24T02:39:16.117Z,55.80
2019-03-24T02:41:44.515Z,54.73
2019-03-24T02:44:12.915Z,56.80
2019-03-24T02:46:41.340Z,71.87
2019-03-24T02:49:09.736Z,59.03
2019-03-24T02:51:38.152Z,66.37
2019-03-24T02:54:06.545Z,66.20
2019-03-24T02:56:34.948Z,66.83
2019-03-24T02:59:03.360Z,61.93
2019-03-24T03:01:31.754Z,64.07
2019-03-24T03:04:00.177Z,71.00
2019-03-24T03:06:28.598Z,64.73
2019-03-24T03:08:57.032Z,63.50
2019-03-24T03:11:25.724Z,62.77
2019-03-24T03:13:54.126Z,63.30
2019-03-24T03:16:22.545Z,56.03
2019-03-24T03:18:50.941Z,61.00
2019-03-24T03:21:19.626Z,56.23
2019-03-24T03:23:48.315Z,60.27
2019-03-24T03:26:16.733Z,59.80
2019-03-24T03:28:45.137Z,68.60
2019-03-24T03:31:13.542Z,68.57
2019-03-24T03:33:41.968Z,62.80
2019-03-24T03:36:10.376Z,64.00
2019-03-24T03:38:38.798Z,67.37
2019-03-24T03:41:07.357Z,68.23
2019-03-24T03:43:35.751Z,73.43
2019-03-24T03:46:04.555Z,73.73
2019-03-24T03:48:32.959Z,70.10
2019-03-24T03:51:01.357Z,68.97
2019-03-24T03:53:29.810Z,67.60
2019-03-24T03:55:58.242Z,66.07
2019-03-24T03:58:26.674Z,74.10
2019-03-24T04:00:55.087Z,68.50
2019-03-24T04:03:23.493Z,71.40
2019-03-24T04:05:52.296Z,81.37
2019-03-24T04:08:20.694Z,72.23
2019-03-24T04:10:49.363Z,65.93
2019-03-24T04:13:17.770Z,69.23
2019-03-24T04:15:46.172Z,68.80
2019-03-24T04:18:14.711Z,73.50
2019-03-24T04:20:43.113Z,71.57
2019-03-24T04:23:11.522Z,72.50
2019-03-24T04:25:39.944Z,67.13
2019-03-24T04:28:08.620Z,66.93
2019-03-24T04:30:37.038Z,66.87
2019-03-24T04:33:05.453Z,67.33
2019-03-24T04:35:34.146Z,70.73
2019-03-24T04:38:02.572Z,78.20
2019-03-24T04:40:30.974Z,74.33
2019-03-24T04:42:59.373Z,71.17
2019-03-24T04:45:27.794Z,70.27
2019-03-24T04:47:56.190Z,69.83
2019-03-24T04:50:24.613Z,72.23
2019-03-24T04:52:53.016Z,72.13
2019-03-24T04:55:21.431Z,67.47
2019-03-24T04:57:49.843Z,70.40
2019-03-24T05:00:21.286Z,69.93
2019-03-24T05:02:49.714Z,71.93
2019-03-24T05:05:18.105Z,76.90
2019-03-24T05:07:46.676Z,81.57
2019-03-24T05:10:26.352Z,79.17
2019-03-24T05:12:54.749Z,74.90
2019-03-24T05:15:23.415Z,75.13
2019-03-24T05:17:51.845Z,78.30
2019-03-24T05:20:20.513Z,82.10
2019-03-24T05:22:48.927Z,90.20
2019-03-24T05:25:17.394Z,96.78
2019-03-24T05:27:45.794Z,82.23
2019-03-24T05:30:14.212Z,76.73
2019-03-24T05:32:42.919Z,78.60
2019-03-24T05:35:12.612Z,79.20
2019-03-24T05:37:41.009Z,78.23
2019-03-24T05:40:09.585Z,92.73
2019-03-24T05:42:37.998Z,89.73
2019-03-24T05:45:07.529Z,85.93
2019-03-24T05:47:37.444Z,80.50
2019-03-24T05:50:08.245Z,79.90
2019-03-24T05:52:36.640Z,84.10
2019-03-24T05:55:06.620Z,87.43
2019-03-24T05:57:34.997Z,81.20
2019-03-24T06:00:05.546Z,76.37
2019-03-24T06:02:33.946Z,84.43
2019-03-24T06:05:02.361Z,80.23
2019-03-24T06:07:31.760Z,80.90
2019-03-24T06:10:00.366Z,84.43
2019-03-24T06:12:28.806Z,76.00
2019-03-24T06:14:57.197Z,78.60
2019-03-24T06:17:25.619Z,74.63
2019-03-24T06:19:54.012Z,72.53
2019-03-24T06:22:22.418Z,71.33
2019-03-24T06:24:50.834Z,74.97
2019-03-24T06:27:19.238Z,77.00
2019-03-24T06:29:47.676Z,75.83
2019-03-24T06:32:16.078Z,80.77
2019-03-24T06:34:44.759Z,75.73
2019-03-24T06:37:13.187Z,72.87
2019-03-24T06:39:41.587Z,72.47
2019-03-24T06:42:10.009Z,72.37
2019-03-24T06:44:38.401Z,70.33
2019-03-24T06:47:06.802Z,71.23
2019-03-24T06:49:35.217Z,63.47
2019-03-24T06:52:03.681Z,68.93
2019-03-24T06:54:32.101Z,70.57
2019-03-24T06:57:00.771Z,70.37
2019-03-24T06:59:29.179Z,67.73
2019-03-24T07:01:57.604Z,64.13
2019-03-24T07:04:25.995Z,71.70
2019-03-24T07:06:54.461Z,64.03
2019-03-24T07:09:22.848Z,72.53
2019-03-24T07:11:51.262Z,63.93
2019-03-24T07:14:19.696Z,78.17
2019-03-24T07:16:48.098Z,73.90
2019-03-24T07:19:16.509Z,72.23
2019-03-24T07:21:44.926Z,75.37
2019-03-24T07:24:13.315Z,80.60
2019-03-24T07:26:41.737Z,77.50
2019-03-24T07:29:10.141Z,83.00
2019-03-24T07:31:38.539Z,78.53
2019-03-24T07:34:06.954Z,73.10
2019-03-24T07:36:35.350Z,79.43
2019-03-24T07:39:05.027Z,74.87
2019-03-24T07:41:33.418Z,74.10
2019-03-24T07:44:01.818Z,80.20
2019-03-24T07:46:30.246Z,77.80
2019-03-24T07:48:58.645Z,75.87
2019-03-24T07:51:27.049Z,72.97
2019-03-24T07:53:55.466Z,73.90
2019-03-24T07:56:23.861Z,72.70
2019-03-24T07:58:52.268Z,73.77
2019-03-24T08:01:20.701Z,73.90
2019-03-24T08:03:49.101Z,73.47
2019-03-24T08:06:17.513Z,69.97
2019-03-24T08:08:45.931Z,79.27
2019-03-24T08:11:14.345Z,73.53
2019-03-24T08:13:53.276Z,69.73
2019-03-24T08:16:12.864Z,70.60
2019-03-24T08:18:41.280Z,66.97
2019-03-24T08:21:09.749Z,69.33
2019-03-24T08:23:38.242Z,75.13
2019-03-24T08:26:06.640Z,66.90
2019-03-24T08:28:35.036Z,71.57
2019-03-24T08:31:03.462Z,74.50
2019-03-24T08:33:31.858Z,70.03
2019-03-24T08:36:00.282Z,70.40
2019-03-24T08:38:28.685Z,71.80
2019-03-24T08:40:57.114Z,69.37
2019-03-24T08:43:25.508Z,72.90
2019-03-24T08:45:53.905Z,70.10
2019-03-24T08:48:22.304Z,66.47
2019-03-24T08:50:50.727Z,66.73
2019-03-24T08:53:19.125Z,65.73
2019-03-24T08:55:47.560Z,71.20
2019-03-24T08:58:15.963Z,63.87
2019-03-24T09:00:45.068Z,69.70
2019-03-24T09:03:13.486Z,66.50
2019-03-24T09:05:41.883Z,61.20
2019-03-24T09:08:10.283Z,67.43
2019-03-24T09:10:38.705Z,66.80
2019-03-24T09:13:07.114Z,61.67
2019-03-24T09:15:35.509Z,61.77
2019-03-24T09:18:03.938Z,65.13
2019-03-24T09:20:41.207Z,69.17
2019-03-24T09:23:02.496Z,57.80
2019-03-24T09:25:30.970Z,64.67
2019-03-24T09:27:59.477Z,63.07
2019-03-24T09:30:32.391Z,64.83
2019-03-24T09:33:00.793Z,60.90
2019-03-24T09:35:29.455Z,63.17
2019-03-24T09:37:58.103Z,61.23
2019-03-24T09:40:35.005Z,57.87
2019-03-24T09:43:04.640Z,58.17
2019-03-24T09:45:33.480Z,62.27
2019-03-24T09:48:02.073Z,58.70
2019-03-24T09:50:30.549Z,55.23
2019-03-24T09:52:59.055Z,56.00
2019-03-24T09:55:27.453Z,53.63
2019-03-24T09:57:55.857Z,54.83
2019-03-24T10:00:24.256Z,59.07
2019-03-24T10:02:52.706Z,56.97
2019-03-24T10:05:21.170Z,61.67
2019-03-24T10:07:49.581Z,57.10
2019-03-24T10:10:18.015Z,56.10
2019-03-24T10:12:46.425Z,59.70
2019-03-24T10:15:15.088Z,54.37
2019-03-24T10:17:43.959Z,54.73
2019-03-24T10:20:12.619Z,57.60
2019-03-24T10:22:41.359Z,50.67
2019-03-24T10:25:09.780Z,53.33
2019-03-24T10:27:38.192Z,61.10
2019-03-24T10:30:08.843Z,58.83
2019-03-24T10:32:37.285Z,56.23
2019-03-24T10:35:07.236Z,54.37
2019-03-24T10:37:35.667Z,54.67
2019-03-24T10:40:05.305Z,56.77
2019-03-24T10:42:33.708Z,60.10
2019-03-24T10:45:02.200Z,52.80
2019-03-24T10:47:30.883Z,53.37
2019-03-24T10:49:59.667Z,56.13
2019-03-24T10:52:28.075Z,53.33
2019-03-24T10:54:56.503Z,54.17
2019-03-24T10:57:24.908Z,54.47
2019-03-24T10:59:53.337Z,48.43
2019-03-24T11:02:21.919Z,48.33
2019-03-24T11:04:50.318Z,43.20
2019-03-24T11:07:18.745Z,50.13
2019-03-24T11:09:47.144Z,45.53
2019-03-24T11:12:15.563Z,45.87
2019-03-24T11:14:43.981Z,47.13
2019-03-24T11:17:12.395Z,43.50
2019-03-24T11:19:40.793Z,42.83
2019-03-24T11:22:09.225Z,50.70
2019-03-24T11:24:37.629Z,49.23
2019-03-24T11:27:06.037Z,44.93
2019-03-24T11:29:34.463Z,46.83
2019-03-24T11:32:02.879Z,46.17
2019-03-24T11:34:31.277Z,52.33
2019-03-24T11:36:59.701Z,49.30
2019-03-24T11:41:49.372Z,49.67
2019-03-24T11:44:17.786Z,45.93
2019-03-24T11:46:46.198Z,51.00
2019-03-24T11:49:19.488Z,45.70
2019-03-24T11:51:47.925Z,42.60
2019-03-24T11:54:16.674Z,44.87
2019-03-24T11:56:45.088Z,44.70
2019-03-24T11:59:13.481Z,47.87
2019-03-24T12:01:41.909Z,51.23
2019-03-24T12:04:10.312Z,50.33
2019-03-24T12:06:38.740Z,48.10
2019-03-24T12:09:07.553Z,46.03
2019-03-24T12:11:35.955Z,52.60
2019-03-24T12:14:04.918Z,41.87
2019-03-24T12:16:34.119Z,38.43
2019-03-24T12:19:02.516Z,40.57
2019-03-24T12:21:30.948Z,37.53
2019-03-24T12:23:59.400Z,32.97
2019-03-24T12:26:27.756Z,32.43
2019-03-24T12:28:56.196Z,35.77
2019-03-24T12:31:24.672Z,32.37
2019-03-24T12:33:53.075Z,41.23
2019-03-24T12:36:21.501Z,33.23
2019-03-24T12:38:49.911Z,35.07
2019-03-24T12:41:18.312Z,38.60
2019-03-24T12:43:46.768Z,32.87
2019-03-24T12:46:15.154Z,33.77
2019-03-24T12:48:43.558Z,33.43
2019-03-24T12:51:12.001Z,35.57
2019-03-24T12:53:40.399Z,35.57
2019-03-24T12:56:08.803Z,32.80
2019-03-24T12:58:37.244Z,35.40
2019-03-24T13:01:05.725Z,35.07
2019-03-24T13:03:35.874Z,38.20
2019-03-24T13:06:04.863Z,40.70
2019-03-24T13:08:33.261Z,38.60
2019-03-24T13:11:01.660Z,35.10
2019-03-24T13:13:30.090Z,38.00
2019-03-24T13:15:58.493Z,37.03
2019-03-24T13:18:26.899Z,33.77
2019-03-24T13:20:55.509Z,32.70
2019-03-24T13:23:23.911Z,40.37
2019-03-24T13:25:52.381Z,36.33
2019-03-24T13:28:20.829Z,39.73
2019-03-24T13:30:49.209Z,38.60
2019-03-24T13:33:17.696Z,41.07
2019-03-24T13:35:47.282Z,39.10
2019-03-24T13:38:15.687Z,38.40
2019-03-24T13:40:44.088Z,34.97
2019-03-24T13:43:12.511Z,30.87
2019-03-24T13:45:40.906Z,31.80
2019-03-24T13:48:09.348Z,340.30
2019-03-24T13:50:37.750Z,54.67
2019-03-24T13:53:06.154Z,29.80
2019-03-24T13:55:34.579Z,28.60
2019-03-24T13:58:04.065Z,27.00
2019-03-24T14:00:32.468Z,23.33
2019-03-24T14:03:01.180Z,27.17
2019-03-24T14:05:29.590Z,30.60
2019-03-24T14:07:57.997Z,29.53
2019-03-24T14:10:26.415Z,29.97
2019-03-24T14:12:54.819Z,30.10
2019-03-24T14:15:23.220Z,30.80
2019-03-24T14:17:51.651Z,32.90
2019-03-24T14:20:20.058Z,33.37
2019-03-24T14:22:48.465Z,33.60
2019-03-24T14:25:16.888Z,35.10
2019-03-24T14:27:45.291Z,37.83
2019-03-24T14:30:14.226Z,39.30
2019-03-24T14:32:42.663Z,62.37
2019-03-24T14:35:11.585Z,38.73
2019-03-24T14:37:39.994Z,36.20
2019-03-24T14:40:08.865Z,35.97
2019-03-24T14:42:37.302Z,35.40
2019-03-24T14:45:09.103Z,35.70
2019-03-24T14:47:38.089Z,36.10
2019-03-24T14:50:12.181Z,37.80
2019-03-24T14:52:40.611Z,45.53
2019-03-24T14:55:09.198Z,37.13
2019-03-24T14:57:37.604Z,37.17
2019-03-24T15:00:07.923Z,35.70
2019-03-24T15:02:36.357Z,34.10
2019-03-24T15:05:06.989Z,33.47
2019-03-24T15:07:35.395Z,33.27
2019-03-24T15:10:07.866Z,37.03
2019-03-24T15:12:36.283Z,32.57
2019-03-24T15:15:07.454Z,32.47
2019-03-24T15:17:36.134Z,33.40
2019-03-24T15:20:06.487Z,30.50
2019-03-24T15:22:34.906Z,31.27
2019-03-24T15:25:03.376Z,29.80
2019-03-24T15:27:31.803Z,30.57
2019-03-24T15:30:00.459Z,31.90
2019-03-24T15:32:28.908Z,31.07
2019-03-24T15:34:57.317Z,30.03
2019-03-24T15:37:25.755Z,27.37
2019-03-24T15:39:54.151Z,29.53
2019-03-24T15:42:22.560Z,23.83
2019-03-24T15:44:50.986Z,27.63
2019-03-24T15:47:19.391Z,23.47
2019-03-24T15:49:48.122Z,22.53
2019-03-24T15:52:16.553Z,24.07
2019-03-24T15:54:44.952Z,20.00
2019-03-24T15:57:13.354Z,19.80
2019-03-24T15:59:42.454Z,24.60
2019-03-24T16:02:10.851Z,19.07
2019-03-24T16:04:39.287Z,19.50
2019-03-24T16:07:07.692Z,20.60
2019-03-24T16:09:36.103Z,20.03
2019-03-24T16:12:04.531Z,17.30
2019-03-24T16:14:32.936Z,18.73
2019-03-24T16:17:01.340Z,21.77
2019-03-24T16:19:29.773Z,20.37
2019-03-24T16:21:58.470Z,20.83
2019-03-24T16:24:26.889Z,22.43
2019-03-24T16:26:55.314Z,15.70
2019-03-24T16:29:23.720Z,14.50
2019-03-24T16:31:52.119Z,14.57
2019-03-24T16:34:20.552Z,21.50
2019-03-24T16:36:48.949Z,17.43
2019-03-24T16:39:17.353Z,19.47
2019-03-24T16:41:45.773Z,19.17
2019-03-24T16:44:14.172Z,14.67
2019-03-24T16:46:44.261Z,12.23
2019-03-24T16:49:12.670Z,17.60
2019-03-24T16:51:41.713Z,18.40
2019-03-24T16:54:10.174Z,13.33
2019-03-24T16:56:38.567Z,12.80
2019-03-24T16:59:06.973Z,12.43
2019-03-24T17:01:35.388Z,20.03
2019-03-24T17:04:03.797Z,11.27
2019-03-24T17:06:32.196Z,16.13
2019-03-24T17:09:01.071Z,12.80
2019-03-24T17:11:29.467Z,14.83
2019-03-24T17:13:57.868Z,13.93
2019-03-24T17:16:26.298Z,11.87
2019-03-24T17:18:54.706Z,10.40
2019-03-24T17:21:23.103Z,11.17
2019-03-24T17:23:51.585Z,11.97
2019-03-24T17:26:19.997Z,10.20
2019-03-24T17:28:48.392Z,8.87
2019-03-24T17:31:16.811Z,12.63
2019-03-24T17:33:45.214Z,10.00
2019-03-24T17:36:13.661Z,8.77
2019-03-24T17:38:42.068Z,11.50
2019-03-24T17:41:10.466Z,8.80
2019-03-24T17:43:38.866Z,8.37
2019-03-24T17:46:07.567Z,8.67
2019-03-24T17:48:35.970Z,7.63
2019-03-24T17:51:04.368Z,11.13
2019-03-24T17:53:32.784Z,8.97
2019-03-24T17:56:01.218Z,8.47
2019-03-24T17:58:29.620Z,10.80
2019-03-24T18:00:58.061Z,9.73
2019-03-24T18:03:26.460Z,11.43
2019-03-24T18:05:54.887Z,11.53
2019-03-24T18:08:23.294Z,7.57
2019-03-24T18:10:52.024Z,8.37
2019-03-24T18:13:20.440Z,9.70
2019-03-24T18:15:48.832Z,7.13
2019-03-24T18:18:17.224Z,9.73
2019-03-24T18:20:45.958Z,7.90
2019-03-24T18:23:14.351Z,6.57
2019-03-24T18:25:42.747Z,7.57
2019-03-24T18:28:11.172Z,11.20
2019-03-24T18:30:39.571Z,10.77
2019-03-24T18:33:07.967Z,10.43
2019-03-24T18:35:36.392Z,9.47
2019-03-24T18:38:05.126Z,8.67
2019-03-24T18:40:33.524Z,10.57
2019-03-24T18:43:01.931Z,6.13
2019-03-24T18:45:30.441Z,8.43
2019-03-24T18:47:59.130Z,10.57
2019-03-24T18:50:27.543Z,10.13
2019-03-24T18:52:55.944Z,10.37
2019-03-24T18:55:24.361Z,8.57
2019-03-24T18:57:52.749Z,8.23
2019-03-24T19:00:21.685Z,8.00
2019-03-24T19:02:50.100Z,8.50
2019-03-24T19:05:19.068Z,13.17
2019-03-24T19:07:48.761Z,12.35
2019-03-24T19:10:17.322Z,22.33
2019-03-24T19:12:45.721Z,13.87
2019-03-24T19:15:16.219Z,8.53
2019-03-24T19:17:44.772Z,7.53
2019-03-24T19:20:13.701Z,10.37
2019-03-24T19:22:42.098Z,7.90
2019-03-24T19:25:10.845Z,9.87
2019-03-24T19:27:39.240Z,7.90
2019-03-24T19:30:10.712Z,10.53
2019-03-24T19:32:39.104Z,6.70
2019-03-24T19:35:08.034Z,7.93
2019-03-24T19:37:36.992Z,10.80
2019-03-24T19:40:08.445Z,7.87
2019-03-24T19:42:36.837Z,9.80
2019-03-24T19:45:06.701Z,11.50
2019-03-24T19:47:35.099Z,5.80
2019-03-24T19:50:04.638Z,21.93
2019-03-24T19:52:40.513Z,17.57
2019-03-24T19:55:03.448Z,10.93
2019-03-24T19:57:31.834Z,10.33
2019-03-24T20:00:00.364Z,7.80
2019-03-24T20:02:28.816Z,9.93
2019-03-24T20:04:57.232Z,7.93
2019-03-24T20:07:25.627Z,7.27
2019-03-24T20:09:54.019Z,7.43
2019-03-24T20:12:22.432Z,8.50
2019-03-24T20:14:51.103Z,6.93
2019-03-24T20:17:19.515Z,6.30
2019-03-24T20:19:47.909Z,7.47
2019-03-24T20:22:16.300Z,6.57
2019-03-24T20:24:44.720Z,8.03
2019-03-24T20:27:13.110Z,7.23
2019-03-24T20:29:41.524Z,11.07
2019-03-24T20:32:09.918Z,7.77
2019-03-24T20:34:38.322Z,11.37
2019-03-24T20:37:06.732Z,8.17
2019-03-24T20:39:35.395Z,5.60
2019-03-24T20:42:03.784Z,9.53
2019-03-24T20:44:32.199Z,7.00
2019-03-24T20:47:00.589Z,8.37
2019-03-24T20:49:28.982Z,10.13
2019-03-24T20:51:57.400Z,6.87
2019-03-24T20:54:25.824Z,6.97
2019-03-24T20:56:54.206Z,4.03
2019-03-24T20:59:22.623Z,8.23
2019-03-24T21:01:51.012Z,10.07
2019-03-24T21:04:20.352Z,7.53
2019-03-24T21:06:48.901Z,6.40
2019-03-24T21:09:17.297Z,9.67
2019-03-24T21:11:45.691Z,11.60
2019-03-24T21:14:14.108Z,5.65
2019-03-24T21:16:42.497Z,6.13
2019-03-24T21:19:10.899Z,14.37
2019-03-24T21:21:39.315Z,11.37
2019-03-24T21:24:07.711Z,7.40
2019-03-24T21:26:36.097Z,6.10
2019-03-24T21:29:04.517Z,9.10
2019-03-24T21:31:32.911Z,7.93
2019-03-24T21:34:01.312Z,9.23
2019-03-24T21:36:29.719Z,6.53
2019-03-24T21:38:58.110Z,7.43
2019-03-24T21:41:26.598Z,8.00
2019-03-24T21:43:54.992Z,8.63
2019-03-24T21:46:23.383Z,8.03
2019-03-24T21:48:51.804Z,11.93
2019-03-24T21:51:20.192Z,10.17
2019-03-24T21:53:48.586Z,10.57
2019-03-24T21:56:17.004Z,8.43
2019-03-24T21:58:45.399Z,13.93
2019-03-24T22:01:13.799Z,13.30
2019-03-24T22:03:42.229Z,11.12
2019-03-24T22:06:10.626Z,10.27
2019-03-24T22:08:39.021Z,18.23
2019-03-24T22:11:07.456Z,26.20
2019-03-24T22:13:35.851Z,16.70
2019-03-24T22:16:04.249Z,19.43
2019-03-24T22:18:32.979Z,21.77
2019-03-24T22:21:01.379Z,18.40
2019-03-24T22:23:29.774Z,15.60
2019-03-24T22:25:58.190Z,14.80
2019-03-24T22:28:26.581Z,15.77
2019-03-24T22:30:54.977Z,11.17
2019-03-24T22:33:23.402Z,12.80
2019-03-24T22:35:52.144Z,17.10
2019-03-24T22:38:20.542Z,15.77
2019-03-24T22:40:48.952Z,15.47
2019-03-24T22:43:17.342Z,19.70
2019-03-24T22:45:45.736Z,9.80
2019-03-24T22:48:14.163Z,11.23
2019-03-24T22:50:42.549Z,14.53
2019-03-24T22:53:10.963Z,11.83
2019-03-24T22:55:39.676Z,9.53
2019-03-24T22:58:08.097Z,11.47
2019-03-24T23:00:52.879Z,10.60
2019-03-24T23:03:21.547Z,9.47
2019-03-24T23:05:49.960Z,8.90
2019-03-24T23:08:18.429Z,11.07
2019-03-24T23:10:46.827Z,11.20
2019-03-24T23:13:15.242Z,18.90
2019-03-24T23:15:43.642Z,10.90
2019-03-24T23:18:12.032Z,9.87
2019-03-24T23:20:40.694Z,6.10
2019-03-24T23:23:09.083Z,7.37
2019-03-24T23:25:37.486Z,6.33
2019-03-24T23:28:06.381Z,6.03
2019-03-24T23:30:34.992Z,6.33
2019-03-24T23:33:03.883Z,16.37
2019-03-24T23:35:32.302Z,7.03
2019-03-24T23:38:00.767Z,10.80
2019-03-24T23:40:29.531Z,10.67
2019-03-24T23:42:57.943Z,9.77
2019-03-24T23:45:26.590Z,10.13
2019-03-24T23:47:54.980Z,10.03
2019-03-24T23:50:23.392Z,6.27
2019-03-24T23:52:51.847Z,8.50
2019-03-24T23:55:20.270Z,6.63
2019-03-24T23:57:48.656Z,8.67
